Time;durP1;ratioP1;P1;durP2;ratioP2;P2;SDS_P1;SDS_P2;PMS_P1;PMS_P2;Temp;Humidity;BMP_temperature;BMP_pressure;BME280_temperature;BME280_humidity;BME280_pressure;Samples;Min_cycle;Max_cycle;Signal;HPM_P1;HPM_P2
2022/06/25 00:01:05;;;;;;;2.70;2.20;;;;;;;;;;5085144;22;20468;-80
2022/06/25 00:03:31;;;;;;;3.28;1.92;;;;;;;;;;5048895;28;20810;-81
2022/06/25 00:05:57;;;;;;;2.83;2.63;;;;;;;;;;5047463;28;20572;-80
2022/06/25 00:08:23;;;;;;;6.07;2.50;;;;;;;;;;5060757;28;20438;-80
2022/06/25 00:10:51;;;;;;;2.97;2.40;;;;;;;;;;5071878;28;20441;-80
2022/06/25 00:13:17;;;;;;;4.00;2.30;;;;;;;;;;5071855;28;20368;-80
2022/06/25 00:15:43;;;;;;;2.92;2.63;;;;;;;;;;5056077;28;20435;-80
2022/06/25 00:18:11;;;;;;;4.03;2.38;;;;;;;;;;5062383;28;20377;-80
2022/06/25 00:20:37;;;;;;;2.42;2.22;;;;;;;;;;5071535;28;20392;-82
2022/06/25 00:23:03;;;;;;;4.53;2.85;;;;;;;;;;5069632;28;20380;-80
2022/06/25 00:25:29;;;;;;;2.70;2.50;;;;;;;;;;5050266;28;20471;-82
2022/06/25 00:27:55;;;;;;;2.63;2.20;;;;;;;;;;5061871;28;20371;-82
2022/06/25 00:30:21;;;;;;;3.25;2.70;;;;;;;;;;5063564;28;20385;-79
2022/06/25 00:32:47;;;;;;;4.20;2.50;;;;;;;;;;5063449;28;20380;-80
2022/06/25 00:35:13;;;;;;;2.53;2.33;;;;;;;;;;5071581;28;20375;-80
2022/06/25 00:37:39;;;;;;;3.07;2.50;;;;;;;;;;5053247;28;20378;-80
2022/06/25 00:40:05;;;;;;;3.80;2.60;;;;;;;;;;5063260;28;20386;-80
2022/06/25 00:42:32;;;;;;;4.37;2.23;;;;;;;;;;5055302;28;20434;-80
2022/06/25 00:44:58;;;;;;;3.55;2.38;;;;;;;;;;5071188;28;20984;-80
2022/06/25 00:47:24;;;;;;;2.60;2.40;;;;;;;;;;5071540;28;20468;-80
2022/06/25 00:49:50;;;;;;;2.60;2.17;;;;;;;;;;5071602;28;20729;-80
2022/06/25 00:52:17;;;;;;;2.45;2.25;;;;;;;;;;5071447;28;20379;-80
2022/06/25 00:54:51;;;;;;;3.30;2.38;;;;;;;;;;5067935;28;20405;-80
2022/06/25 00:57:19;;;;;;;3.08;2.55;;;;;;;;;;5064828;28;20420;-80
2022/06/25 00:59:46;;;;;;;2.30;2.20;;;;;;;;;;5071200;28;20384;-80
2022/06/25 01:02:12;;;;;;;5.05;2.53;;;;;;;;;;5071728;28;20387;-80
2022/06/25 01:04:38;;;;;;;3.80;2.40;;;;;;;;;;5074956;28;20418;-82
2022/06/25 01:07:05;;;;;;;2.42;2.13;;;;;;;;;;5061439;28;20378;-80
2022/06/25 01:09:31;;;;;;;3.33;2.22;;;;;;;;;;5070774;28;20407;-80
2022/06/25 01:11:57;;;;;;;2.72;2.47;;;;;;;;;;5074917;28;20376;-80
2022/06/25 01:14:23;;;;;;;3.22;2.60;;;;;;;;;;5074856;28;20372;-80
2022/06/25 01:16:49;;;;;;;5.35;3.03;;;;;;;;;;5074774;28;20714;-80
2022/06/25 01:19:15;;;;;;;3.80;2.67;;;;;;;;;;5075066;28;20788;-80
2022/06/25 01:21:42;;;;;;;5.72;2.60;;;;;;;;;;5074416;28;20459;-80
2022/06/25 01:24:08;;;;;;;3.47;3.17;;;;;;;;;;5074600;28;20702;-80
2022/06/25 01:26:35;;;;;;;3.17;2.65;;;;;;;;;;5074582;28;20384;-80
2022/06/25 01:29:01;;;;;;;2.83;2.63;;;;;;;;;;5074825;28;20428;-80
2022/06/25 01:31:27;;;;;;;3.55;2.75;;;;;;;;;;5074474;28;20403;-80
2022/06/25 01:33:53;;;;;;;3.80;2.90;;;;;;;;;;5074508;28;20421;-80
2022/06/25 01:36:19;;;;;;;3.43;3.10;;;;;;;;;;5057248;28;20409;-80
2022/06/25 01:38:45;;;;;;;2.88;2.50;;;;;;;;;;5056986;28;20376;-80
2022/06/25 01:41:11;;;;;;;3.75;3.08;;;;;;;;;;5055609;28;20378;-80
2022/06/25 01:43:37;;;;;;;4.03;3.17;;;;;;;;;;5055459;28;20432;-80
2022/06/25 01:46:04;;;;;;;4.22;2.92;;;;;;;;;;5048013;28;20405;-80
2022/06/25 01:48:30;;;;;;;3.35;3.05;;;;;;;;;;5039301;28;20403;-80
2022/06/25 01:50:56;;;;;;;3.50;3.20;;;;;;;;;;5055898;28;20887;-80
2022/06/25 01:53:22;;;;;;;3.25;3.05;;;;;;;;;;5071133;28;20466;-80
2022/06/25 01:55:48;;;;;;;3.20;3.00;;;;;;;;;;5063641;28;20452;-80
2022/06/25 01:58:15;;;;;;;4.00;3.50;;;;;;;;;;5071642;28;20876;-80
2022/06/25 02:00:42;;;;;;;4.40;3.55;;;;;;;;;;5073730;28;20387;-80
2022/06/25 02:03:08;;;;;;;4.53;3.60;;;;;;;;;;5073143;28;20380;-80
2022/06/25 02:08:19;;;;;;;3.92;3.60;;;;;;;;;;5063277;28;20745;-80
2022/06/25 02:10:46;;;;;;;3.38;3.17;;;;;;;;;;5057296;28;20394;-80
2022/06/25 02:13:12;;;;;;;3.80;3.50;;;;;;;;;;5055022;28;21491;-82
2022/06/25 02:15:38;;;;;;;3.60;3.38;;;;;;;;;;5053090;28;20415;-82
2022/06/25 02:18:04;;;;;;;4.20;3.80;;;;;;;;;;5055136;28;20401;-81
2022/06/25 02:20:30;;;;;;;3.90;3.53;;;;;;;;;;5057173;28;20364;-80
2022/06/25 02:22:56;;;;;;;4.10;3.70;;;;;;;;;;5073587;28;20382;-80
2022/06/25 02:25:23;;;;;;;3.67;3.40;;;;;;;;;;5073709;28;20380;-80
2022/06/25 02:27:49;;;;;;;3.80;3.50;;;;;;;;;;5073524;28;20383;-80
2022/06/25 02:30:15;;;;;;;4.43;3.22;;;;;;;;;;5073123;28;20383;-80
2022/06/25 02:32:41;;;;;;;3.47;3.17;;;;;;;;;;5073385;28;20390;-80
2022/06/25 02:35:07;;;;;;;3.30;3.00;;;;;;;;;;5073229;28;20407;-80
2022/06/25 02:37:33;;;;;;;3.00;2.80;;;;;;;;;;5055944;28;20743;-80
2022/06/25 02:39:59;;;;;;;3.55;3.30;;;;;;;;;;5052575;28;20378;-80
2022/06/25 02:42:25;;;;;;;3.67;3.38;;;;;;;;;;5072969;28;20383;-80
2022/06/25 02:44:51;;;;;;;3.47;3.28;;;;;;;;;;5073106;28;20467;-80
2022/06/25 02:47:17;;;;;;;5.22;4.13;;;;;;;;;;5073018;28;20407;-80
2022/06/25 02:49:43;;;;;;;6.85;6.22;;;;;;;;;;5071707;28;20422;-80
2022/06/25 02:52:09;;;;;;;6.60;6.10;;;;;;;;;;5056526;28;20374;-80
2022/06/25 02:54:35;;;;;;;5.60;5.20;;;;;;;;;;5070152;28;20460;-80
2022/06/25 02:59:46;;;;;;;4.83;4.47;;;;;;;;;;5072964;28;20506;-80
2022/06/25 03:02:12;;;;;;;5.50;5.00;;;;;;;;;;5072771;28;20884;-80
2022/06/25 03:04:38;;;;;;;6.75;6.10;;;;;;;;;;5073029;28;20372;-80
2022/06/25 03:07:04;;;;;;;6.93;6.43;;;;;;;;;;5059252;28;20382;-80
2022/06/25 03:09:30;;;;;;;7.70;7.10;;;;;;;;;;5071470;28;20383;-80
2022/06/25 03:11:56;;;;;;;12.00;10.90;;;;;;;;;;5072585;28;20392;-80
2022/06/25 03:14:22;;;;;;;11.57;10.77;;;;;;;;;;5072886;28;20430;-80
2022/06/25 03:16:48;;;;;;;12.52;11.50;;;;;;;;;;5072470;28;20418;-80
2022/06/25 03:19:14;;;;;;;15.43;14.13;;;;;;;;;;5072584;28;20856;-81
2022/06/25 03:21:40;;;;;;;13.90;12.70;;;;;;;;;;5072262;28;20411;-80
2022/06/25 03:24:06;;;;;;;13.25;12.25;;;;;;;;;;5072539;28;20853;-80
2022/06/25 03:26:32;;;;;;;14.05;12.95;;;;;;;;;;5072138;28;20753;-80
2022/06/25 03:28:59;;;;;;;13.18;12.23;;;;;;;;;;5072943;28;20372;-80
2022/06/25 03:31:25;;;;;;;13.55;12.55;;;;;;;;;;5072433;28;20467;-80
2022/06/25 03:33:51;;;;;;;13.93;12.88;;;;;;;;;;5072518;28;20414;-81
2022/06/25 03:36:17;;;;;;;35.13;13.70;;;;;;;;;;5065279;28;20417;-80
2022/06/25 03:38:43;;;;;;;12.13;11.23;;;;;;;;;;5055527;28;20381;-80
2022/06/25 03:43:53;;;;;;;12.65;11.75;;;;;;;;;;5072308;28;20418;-80
2022/06/25 03:46:19;;;;;;;13.15;12.15;;;;;;;;;;5072310;28;20391;-80
2022/06/25 03:48:45;;;;;;;12.43;11.52;;;;;;;;;;5069828;28;20475;-81
2022/06/25 03:51:13;;;;;;;12.67;11.67;;;;;;;;;;5052003;28;20550;-80
2022/06/25 03:53:39;;;;;;;12.52;11.63;;;;;;;;;;5066366;28;20458;-80
2022/06/25 03:56:05;;;;;;;13.30;12.30;;;;;;;;;;5063289;28;20438;-81
2022/06/25 03:58:31;;;;;;;12.03;11.13;;;;;;;;;;5072398;28;20806;-81
2022/06/25 04:00:57;;;;;;;11.82;11.00;;;;;;;;;;5071825;28;20391;-81
2022/06/25 04:03:23;;;;;;;12.20;11.20;;;;;;;;;;5072115;28;20505;-81
2022/06/25 04:05:49;;;;;;;11.07;10.27;;;;;;;;;;5068768;28;20848;-81
2022/06/25 04:08:15;;;;;;;9.43;8.83;;;;;;;;;;5060309;28;20398;-81
2022/06/25 04:10:42;;;;;;;9.80;9.10;;;;;;;;;;5072176;28;20468;-81
2022/06/25 04:13:08;;;;;;;10.55;9.75;;;;;;;;;;5071824;28;20433;-81
2022/06/25 04:15:35;;;;;;;9.60;8.90;;;;;;;;;;5072110;28;20410;-81
2022/06/25 04:18:01;;;;;;;9.77;9.07;;;;;;;;;;5071895;28;20375;-81
2022/06/25 04:20:27;;;;;;;9.07;8.48;;;;;;;;;;5060437;28;20389;-81
2022/06/25 04:22:53;;;;;;;9.80;9.10;;;;;;;;;;5064712;28;20768;-81
2022/06/25 04:25:19;;;;;;;9.35;8.65;;;;;;;;;;5071683;28;20402;-81
2022/06/25 04:30:30;;;;;;;9.90;9.20;;;;;;;;;;5071753;28;20383;-81
2022/06/25 04:32:56;;;;;;;9.88;9.07;;;;;;;;;;5071708;28;20784;-81
2022/06/25 04:35:22;;;;;;;8.97;8.37;;;;;;;;;;5069806;28;20407;-81
2022/06/25 04:37:48;;;;;;;11.68;10.50;;;;;;;;;;5051225;28;20383;-81
2022/06/25 04:40:14;;;;;;;10.90;10.10;;;;;;;;;;5071310;28;20387;-81
2022/06/25 04:42:40;;;;;;;10.73;9.80;;;;;;;;;;5075448;28;20391;-81
2022/06/25 04:45:06;;;;;;;10.63;9.83;;;;;;;;;;5073201;28;20411;-81
2022/06/25 04:47:32;;;;;;;9.93;9.13;;;;;;;;;;5052997;28;20385;-81
2022/06/25 04:49:58;;;;;;;9.02;8.43;;;;;;;;;;5067080;28;20884;-81
2022/06/25 04:52:24;;;;;;;8.93;8.23;;;;;;;;;;5075045;28;20483;-81
2022/06/25 04:54:50;;;;;;;9.20;8.60;;;;;;;;;;5070370;28;21012;-81
2022/06/25 04:57:16;;;;;;;9.18;8.48;;;;;;;;;;5071142;28;20372;-81
2022/06/25 04:59:42;;;;;;;8.50;7.80;;;;;;;;;;5074902;28;20756;-81
2022/06/25 05:02:08;;;;;;;9.38;8.55;;;;;;;;;;5075039;28;20376;-81
2022/06/25 05:04:34;;;;;;;8.87;8.27;;;;;;;;;;5075134;28;20828;-81
2022/06/25 05:07:01;;;;;;;9.07;8.40;;;;;;;;;;5062083;28;20378;-81
2022/06/25 05:09:27;;;;;;;9.55;8.77;;;;;;;;;;5073070;28;20740;-81
2022/06/25 05:11:53;;;;;;;10.57;9.77;;;;;;;;;;5075227;28;20450;-81
2022/06/25 05:14:19;;;;;;;8.73;8.10;;;;;;;;;;5074788;28;20410;-81
2022/06/25 05:16:46;;;;;;;8.63;7.93;;;;;;;;;;5074981;28;20418;-81
2022/06/25 05:19:13;;;;;;;8.30;7.70;;;;;;;;;;5073632;28;20391;-81
2022/06/25 05:21:39;;;;;;;8.45;7.85;;;;;;;;;;5074479;28;20387;-81
2022/06/25 05:24:05;;;;;;;8.57;7.63;;;;;;;;;;5074976;28;20892;-82
2022/06/25 05:26:31;;;;;;;9.45;8.70;;;;;;;;;;5074529;28;20887;-81
2022/06/25 05:28:57;;;;;;;7.50;7.00;;;;;;;;;;5064078;28;20487;-81
2022/06/25 05:31:23;;;;;;;7.70;7.20;;;;;;;;;;5062937;28;20453;-81
2022/06/25 05:33:49;;;;;;;7.90;7.20;;;;;;;;;;5073841;28;20372;-81
2022/06/25 05:36:16;;;;;;;8.00;7.40;;;;;;;;;;5067265;28;20401;-81
2022/06/25 05:38:42;;;;;;;7.85;7.25;;;;;;;;;;5071638;28;20387;-82
2022/06/25 05:41:08;;;;;;;10.60;9.80;;;;;;;;;;5062445;28;20940;-81
2022/06/25 05:43:35;;;;;;;8.90;8.20;;;;;;;;;;5064990;28;20472;-80
2022/06/25 05:46:01;;;;;;;8.88;8.18;;;;;;;;;;5064054;28;20463;-80
2022/06/25 05:48:27;;;;;;;8.95;8.25;;;;;;;;;;5053984;28;20886;-81
2022/06/25 05:50:53;;;;;;;10.73;9.87;;;;;;;;;;5067070;28;20400;-81
2022/06/25 05:53:19;;;;;;;9.85;9.05;;;;;;;;;;5065852;28;20471;-81
2022/06/25 05:55:46;;;;;;;9.48;8.68;;;;;;;;;;5065158;28;20400;-82
2022/06/25 05:58:12;;;;;;;9.02;8.38;;;;;;;;;;5060398;28;20443;-81
2022/06/25 06:00:38;;;;;;;9.65;8.95;;;;;;;;;;5069113;28;20434;-82
2022/06/25 06:03:04;;;;;;;9.67;8.87;;;;;;;;;;5074177;28;20433;-83
2022/06/25 06:05:30;;;;;;;9.43;8.73;;;;;;;;;;5073497;28;20372;-81
2022/06/25 06:07:56;;;;;;;9.10;8.40;;;;;;;;;;5059649;28;20407;-81
2022/06/25 06:10:22;;;;;;;9.57;8.77;;;;;;;;;;5065109;28;20419;-81
2022/06/25 06:12:48;;;;;;;9.20;8.50;;;;;;;;;;5073706;28;20379;-81
2022/06/25 06:15:14;;;;;;;9.48;8.77;;;;;;;;;;5073538;28;20900;-81
2022/06/25 06:17:41;;;;;;;9.27;8.57;;;;;;;;;;5073832;28;20407;-81
2022/06/25 06:20:07;;;;;;;9.95;9.05;;;;;;;;;;5058605;28;20375;-81
2022/06/25 06:22:33;;;;;;;9.17;8.47;;;;;;;;;;5062859;28;20368;-80
2022/06/25 06:24:59;;;;;;;8.73;8.07;;;;;;;;;;5064133;28;20420;-81
2022/06/25 06:27:25;;;;;;;8.40;7.80;;;;;;;;;;5073436;28;20372;-81
2022/06/25 06:29:51;;;;;;;8.13;7.63;;;;;;;;;;5073054;28;20953;-80
2022/06/25 06:32:17;;;;;;;7.57;7.00;;;;;;;;;;5048347;28;20376;-80
2022/06/25 06:34:44;;;;;;;8.43;7.82;;;;;;;;;;5065746;28;20412;-81
2022/06/25 06:37:10;;;;;;;7.40;6.80;;;;;;;;;;5071651;28;20446;-80
2022/06/25 06:39:36;;;;;;;7.72;7.10;;;;;;;;;;5060323;28;20377;-80
2022/06/25 06:42:02;;;;;;;7.78;7.13;;;;;;;;;;5069773;28;20421;-80
2022/06/25 06:44:28;;;;;;;7.40;6.90;;;;;;;;;;5073024;28;20383;-81
2022/06/25 06:46:54;;;;;;;7.68;7.07;;;;;;;;;;5072950;28;20368;-81
2022/06/25 06:49:20;;;;;;;8.05;7.38;;;;;;;;;;5073149;28;20841;-81
2022/06/25 06:51:46;;;;;;;7.80;7.30;;;;;;;;;;5059248;28;20385;-81
2022/06/25 06:54:12;;;;;;;8.60;8.00;;;;;;;;;;5052568;28;20374;-81
2022/06/25 06:56:38;;;;;;;9.63;8.93;;;;;;;;;;5063647;28;20403;-81
2022/06/25 06:59:04;;;;;;;11.20;10.25;;;;;;;;;;5068407;28;20390;-81
2022/06/25 07:01:30;;;;;;;10.60;9.80;;;;;;;;;;5060199;28;20797;-81
2022/06/25 07:03:56;;;;;;;9.15;8.45;;;;;;;;;;5064502;28;20466;-81
2022/06/25 07:06:22;;;;;;;8.65;7.90;;;;;;;;;;5059544;28;20403;-81
2022/06/25 07:08:48;;;;;;;9.32;8.50;;;;;;;;;;5063338;28;20418;-81
2022/06/25 07:11:30;;;;;;;9.20;8.50;;;;;;;;;;5053212;28;20924;-81
2022/06/25 07:14:07;;;;;;;9.82;9.10;;;;;;;;;;5051873;28;20380;-82
2022/06/25 07:16:34;;;;;;;9.52;8.73;;;;;;;;;;5056344;28;20412;-81
2022/06/25 07:19:01;;;;;;;10.00;9.20;;;;;;;;;;5070743;28;20865;-81
2022/06/25 07:21:27;;;;;;;10.00;9.30;;;;;;;;;;5061636;28;20381;-82
2022/06/25 07:23:53;;;;;;;9.85;8.98;;;;;;;;;;5065013;28;20384;-80
2022/06/25 07:26:20;;;;;;;10.15;9.25;;;;;;;;;;5072708;28;20376;-81
2022/06/25 07:28:46;;;;;;;12.60;11.48;;;;;;;;;;5072338;28;20925;-81
2022/06/25 07:31:12;;;;;;;14.07;12.77;;;;;;;;;;5072384;28;20384;-80
2022/06/25 07:33:38;;;;;;;14.40;13.07;;;;;;;;;;5072665;28;20380;-80
2022/06/25 07:36:04;;;;;;;13.43;12.13;;;;;;;;;;5072301;28;20499;-80
2022/06/25 07:38:30;;;;;;;10.95;10.05;;;;;;;;;;5071972;28;20461;-81
2022/06/25 07:40:56;;;;;;;11.00;10.18;;;;;;;;;;5059494;28;20403;-83
2022/06/25 07:43:22;;;;;;;11.38;10.38;;;;;;;;;;5069859;28;20372;-85
2022/06/25 07:45:49;;;;;;;10.40;9.60;;;;;;;;;;5070443;28;20455;-82
2022/06/25 07:48:15;;;;;;;9.82;9.02;;;;;;;;;;5070088;28;20471;-83
2022/06/25 07:53:26;;;;;;;8.18;7.57;;;;;;;;;;5051313;28;20536;-83
2022/06/25 07:55:52;;;;;;;8.10;7.40;;;;;;;;;;5052158;28;20405;-83
2022/06/25 07:58:18;;;;;;;7.72;7.13;;;;;;;;;;5062107;28;20390;-83
2022/06/25 08:00:44;;;;;;;6.82;6.32;;;;;;;;;;5065794;28;20401;-84
2022/06/25 08:03:10;;;;;;;7.03;6.32;;;;;;;;;;5072045;28;20372;-85
2022/06/25 08:05:36;;;;;;;6.18;5.68;;;;;;;;;;5070914;28;20396;-89
2022/06/25 08:08:02;;;;;;;6.10;5.60;;;;;;;;;;5056969;28;20480;-89
2022/06/25 08:10:28;;;;;;;5.93;5.53;;;;;;;;;;5050870;28;20381;-88
2022/06/25 08:12:54;;;;;;;5.35;4.95;;;;;;;;;;5063207;28;20871;-85
2022/06/25 08:15:20;;;;;;;5.32;4.82;;;;;;;;;;5075963;28;20456;-85
2022/06/25 08:17:47;;;;;;;5.23;4.80;;;;;;;;;;5059457;28;20474;-88
2022/06/25 08:20:13;;;;;;;4.90;4.50;;;;;;;;;;5074943;28;20380;-90
2022/06/25 08:22:39;;;;;;;4.60;4.28;;;;;;;;;;5073372;28;20395;-88
2022/06/25 08:25:07;;;;;;;4.60;4.20;;;;;;;;;;5076062;28;20745;-89
2022/06/25 08:27:34;;;;;;;4.50;4.10;;;;;;;;;;5075777;28;20407;-86
2022/06/25 08:30:00;;;;;;;3.95;3.55;;;;;;;;;;5075584;28;20390;-87
2022/06/25 08:32:26;;;;;;;4.10;3.80;;;;;;;;;;5076067;28;20379;-85
2022/06/25 08:34:52;;;;;;;3.90;3.50;;;;;;;;;;5065473;28;20490;-85
2022/06/25 08:37:18;;;;;;;3.57;3.27;;;;;;;;;;5075043;28;20376;-85
2022/06/25 08:39:44;;;;;;;3.55;3.28;;;;;;;;;;5061196;28;20377;-86
2022/06/25 08:42:10;;;;;;;3.45;3.15;;;;;;;;;;5043202;28;20381;-84
2022/06/25 08:44:36;;;;;;;3.97;3.63;;;;;;;;;;5061114;28;20476;-86
2022/06/25 08:47:02;;;;;;;4.45;4.03;;;;;;;;;;5060978;28;20460;-86
2022/06/25 08:49:31;;;;;;;3.60;3.30;;;;;;;;;;5063151;28;20779;-86
2022/06/25 08:51:58;;;;;;;3.53;3.22;;;;;;;;;;5064552;28;20847;-86
2022/06/25 08:54:24;;;;;;;2.90;2.70;;;;;;;;;;5070544;28;20457;-86
2022/06/25 08:56:51;;;;;;;2.95;2.70;;;;;;;;;;5057398;28;20400;-87
2022/06/25 08:59:19;;;;;;;2.65;2.45;;;;;;;;;;5061556;28;20417;-84
2022/06/25 09:01:45;;;;;;;3.67;2.60;;;;;;;;;;5065598;28;20384;-85
2022/06/25 09:04:11;;;;;;;2.30;2.10;;;;;;;;;;5065093;28;20385;-85
2022/06/25 09:06:37;;;;;;;3.03;2.20;;;;;;;;;;5051706;28;20385;-85
2022/06/25 09:09:21;;;;;;;2.20;1.90;;;;;;;;;;5048815;28;20751;-85
2022/06/25 09:11:58;;;;;;;3.03;2.00;;;;;;;;;;5061563;28;20500;-84
2022/06/25 09:14:28;;;;;;;3.10;1.73;;;;;;;;;;5053381;28;20398;-86
2022/06/25 09:16:56;;;;;;;2.25;1.50;;;;;;;;;;5063257;28;20401;-84
2022/06/25 09:19:31;;;;;;;1.33;1.00;;;;;;;;;;5047021;28;20764;-87
2022/06/25 09:21:58;;;;;;;1.38;1.23;;;;;;;;;;5062191;28;20398;-88
2022/06/25 09:24:24;;;;;;;3.35;1.30;;;;;;;;;;5055476;28;20388;-88
2022/06/25 09:26:51;;;;;;;0.90;0.90;;;;;;;;;;5061007;28;20421;-87
2022/06/25 09:29:17;;;;;;;1.80;1.17;;;;;;;;;;5063874;28;20386;-87
2022/06/25 09:31:43;;;;;;;1.05;0.90;;;;;;;;;;5074223;28;20455;-88
2022/06/25 09:34:09;;;;;;;1.38;1.27;;;;;;;;;;5075005;28;20771;-88
2022/06/25 09:36:36;;;;;;;1.85;1.13;;;;;;;;;;5071104;28;20417;-87
2022/06/25 09:39:02;;;;;;;1.40;0.90;;;;;;;;;;5056799;28;20447;-85
2022/06/25 09:41:47;;;;;;;1.80;1.00;;;;;;;;;;5065188;28;20853;-85
2022/06/25 09:44:18;;;;;;;1.58;0.88;;;;;;;;;;5059436;28;20372;-85
2022/06/25 09:46:57;;;;;;;1.00;0.70;;;;;;;;;;5074654;28;20869;-85
2022/06/25 09:49:24;;;;;;;1.58;0.60;;;;;;;;;;5074329;28;20368;-86
2022/06/25 09:51:59;;;;;;;0.63;0.57;;;;;;;;;;5074224;28;20384;-88
2022/06/25 09:54:26;;;;;;;0.60;0.60;;;;;;;;;;5072907;28;20368;-86
2022/06/25 09:56:54;;;;;;;0.50;0.50;;;;;;;;;;5062237;28;20965;-88
2022/06/25 09:59:20;;;;;;;2.58;0.73;;;;;;;;;;5067595;28;20420;-87
2022/06/25 10:01:46;;;;;;;0.40;0.40;;;;;;;;;;5056345;28;20474;-88
2022/06/25 10:04:13;;;;;;;1.35;0.52;;;;;;;;;;5073921;28;20926;-89
2022/06/25 10:06:40;;;;;;;0.60;0.60;;;;;;;;;;5073874;28;20383;-88
2022/06/25 10:09:07;;;;;;;0.85;0.50;;;;;;;;;;5073844;28;20388;-88
2022/06/25 10:11:34;;;;;;;1.15;0.70;;;;;;;;;;5073884;28;20791;-88
2022/06/25 10:14:00;;;;;;;0.80;0.50;;;;;;;;;;5063124;28;20878;-87
2022/06/25 10:16:28;;;;;;;0.60;0.40;;;;;;;;;;5056832;28;20967;-87
2022/06/25 10:18:54;;;;;;;0.85;0.50;;;;;;;;;;5071244;28;20383;-86
2022/06/25 10:21:21;;;;;;;0.70;0.60;;;;;;;;;;5068291;28;20720;-86
2022/06/25 10:23:52;;;;;;;3.60;0.60;;;;;;;;;;5073536;28;20437;-87
2022/06/25 10:26:18;;;;;;;1.15;0.68;;;;;;;;;;5068537;28;20409;-87
2022/06/25 10:28:46;;;;;;;0.80;0.60;;;;;;;;;;5072803;28;20383;-87
2022/06/25 10:31:15;;;;;;;0.77;0.67;;;;;;;;;;5075612;28;20489;-87
2022/06/25 10:34:00;;;;;;;0.50;0.50;;;;;;;;;;5078995;28;20384;-87
2022/06/25 10:36:41;;;;;;;2.05;0.68;;;;;;;;;;5047049;28;20410;-87
2022/06/25 10:39:27;;;;;;;0.70;0.70;;;;;;;;;;5058193;28;20380;-87
2022/06/25 10:45:05;;;;;;;1.23;0.87;;;;;;;;;;5053605;28;20427;-87
2022/06/25 10:47:37;;;;;;;1.02;0.70;;;;;;;;;;5053425;28;20392;-87
2022/06/25 10:50:22;;;;;;;0.80;0.80;;;;;;;;;;5065374;28;20875;-89
2022/06/25 10:53:03;;;;;;;0.70;0.70;;;;;;;;;;5071123;28;20383;-87
2022/06/25 10:55:29;;;;;;;0.63;0.60;;;;;;;;;;5058843;28;20413;-91
2022/06/25 10:58:14;;;;;;;1.25;0.80;;;;;;;;;;5068345;28;20876;-89
2022/06/25 11:00:48;;;;;;;1.13;0.80;;;;;;;;;;5071354;28;20380;-89
2022/06/25 11:03:15;;;;;;;0.70;0.70;;;;;;;;;;5072096;28;20451;-90
2022/06/25 11:05:42;;;;;;;0.80;0.70;;;;;;;;;;5065361;28;20393;-90
2022/06/25 11:08:08;;;;;;;0.90;0.50;;;;;;;;;;5061167;28;20779;-90
2022/06/25 11:10:38;;;;;;;1.90;0.70;;;;;;;;;;5071726;28;20550;-91
2022/06/25 11:13:04;;;;;;;0.70;0.60;;;;;;;;;;5072789;28;20958;-90
2022/06/25 11:15:41;;;;;;;1.48;1.00;;;;;;;;;;5072674;28;20456;-91
2022/06/25 11:18:07;;;;;;;0.70;0.70;;;;;;;;;;5072550;28;20407;-90
2022/06/25 11:20:33;;;;;;;1.40;0.60;;;;;;;;;;5072509;28;20467;-90
2022/06/25 11:23:00;;;;;;;1.60;0.68;;;;;;;;;;5070344;28;20383;-90
2022/06/25 11:30:55;;;;;;;0.50;0.50;;;;;;;;;;5072430;28;20379;-90
2022/06/25 11:33:21;;;;;;;1.55;0.52;;;;;;;;;;5072503;28;20386;-90
2022/06/25 11:35:49;;;;;;;0.50;0.50;;;;;;;;;;5072385;28;20495;-91
2022/06/25 11:38:16;;;;;;;0.68;0.52;;;;;;;;;;5072597;28;20447;-89
2022/06/25 11:40:42;;;;;;;0.93;0.43;;;;;;;;;;5052459;28;20857;-91
2022/06/25 11:43:09;;;;;;;1.08;0.50;;;;;;;;;;5062681;28;20376;-91
2022/06/25 11:45:48;;;;;;;0.40;0.40;;;;;;;;;;5059791;28;20380;-90
2022/06/25 11:48:15;;;;;;;0.50;0.40;;;;;;;;;;5065122;28;20471;-91
2022/06/25 11:50:41;;;;;;;0.68;0.47;;;;;;;;;;5070168;28;20382;-91
2022/06/25 11:53:07;;;;;;;0.30;0.30;;;;;;;;;;5062199;28;20384;-91
2022/06/25 11:55:33;;;;;;;0.80;0.50;;;;;;;;;;5057561;28;20495;-90
2022/06/25 11:57:59;;;;;;;0.60;0.30;;;;;;;;;;5072316;28;20407;-90
2022/06/25 12:00:25;;;;;;;0.98;0.32;;;;;;;;;;5072162;28;20430;-91
2022/06/25 12:03:01;;;;;;;0.70;0.40;;;;;;;;;;5072237;28;20840;-91
2022/06/25 12:05:28;;;;;;;0.45;0.30;;;;;;;;;;5058698;28;20389;-91
2022/06/25 12:07:56;;;;;;;0.60;0.40;;;;;;;;;;5052352;28;20393;-90
2022/06/25 12:10:23;;;;;;;0.90;0.40;;;;;;;;;;5072179;28;20383;-89
2022/06/25 12:12:49;;;;;;;0.30;0.30;;;;;;;;;;5067728;28;20448;-91
2022/06/25 12:15:15;;;;;;;0.68;0.47;;;;;;;;;;5054351;28;20433;-88
2022/06/25 12:17:43;;;;;;;0.52;0.30;;;;;;;;;;5052643;28;20394;-88
2022/06/25 12:20:10;;;;;;;0.60;0.30;;;;;;;;;;5052202;28;20844;-88
2022/06/25 12:22:38;;;;;;;0.63;0.35;;;;;;;;;;5051136;28;20373;-86
2022/06/25 12:25:04;;;;;;;1.20;0.30;;;;;;;;;;5060372;28;20467;-88
2022/06/25 12:27:30;;;;;;;1.00;0.40;;;;;;;;;;5070877;28;20400;-86
2022/06/25 12:29:58;;;;;;;1.85;0.40;;;;;;;;;;5071731;28;20395;-86
2022/06/25 12:32:37;;;;;;;0.63;0.40;;;;;;;;;;5071847;28;20861;-86
2022/06/25 12:35:04;;;;;;;1.40;0.40;;;;;;;;;;5071597;28;20411;-86
2022/06/25 12:37:31;;;;;;;0.45;0.30;;;;;;;;;;5071868;28;20380;-86
2022/06/25 12:39:57;;;;;;;0.40;0.32;;;;;;;;;;5071779;28;20383;-86
2022/06/25 12:42:24;;;;;;;0.40;0.30;;;;;;;;;;5060007;28;20388;-86
2022/06/25 12:44:50;;;;;;;1.40;0.40;;;;;;;;;;5065887;28;20387;-87
2022/06/25 12:47:17;;;;;;;0.47;0.30;;;;;;;;;;5066814;28;20428;-87
2022/06/25 12:49:43;;;;;;;0.90;0.40;;;;;;;;;;5053868;28;20416;-86
2022/06/25 12:52:09;;;;;;;0.80;0.30;;;;;;;;;;5065987;28;20749;-87
2022/06/25 12:54:42;;;;;;;0.60;0.40;;;;;;;;;;5064138;28;20413;-87
2022/06/25 12:57:08;;;;;;;1.70;0.40;;;;;;;;;;5054629;28;20873;-89
2022/06/25 12:59:34;;;;;;;0.68;0.40;;;;;;;;;;5055738;28;20866;-88
2022/06/25 13:02:00;;;;;;;0.40;0.25;;;;;;;;;;5055026;28;20388;-87
2022/06/25 13:04:26;;;;;;;0.30;0.30;;;;;;;;;;5073001;28;20402;-86
2022/06/25 13:06:52;;;;;;;0.95;0.40;;;;;;;;;;5076119;28;20417;-85
2022/06/25 13:09:18;;;;;;;1.58;0.40;;;;;;;;;;5074799;28;20403;-84
2022/06/25 13:11:44;;;;;;;0.95;0.38;;;;;;;;;;5074793;28;20420;-83
2022/06/25 13:14:10;;;;;;;0.60;0.60;;;;;;;;;;5065811;28;20393;-85
2022/06/25 13:16:36;;;;;;;0.70;0.30;;;;;;;;;;5064207;28;20885;-84
2022/06/25 13:19:02;;;;;;;0.30;0.20;;;;;;;;;;5074930;28;20376;-85
2022/06/25 13:21:28;;;;;;;0.63;0.35;;;;;;;;;;5074644;28;20374;-84
2022/06/25 13:23:54;;;;;;;0.60;0.30;;;;;;;;;;5072614;28;20757;-85
2022/06/25 13:26:23;;;;;;;0.82;0.38;;;;;;;;;;5067637;28;20391;-85
2022/06/25 13:28:49;;;;;;;1.43;0.30;;;;;;;;;;5065186;28;20379;-85
2022/06/25 13:31:15;;;;;;;0.50;0.30;;;;;;;;;;5068169;28;20388;-84
2022/06/25 13:33:41;;;;;;;1.25;0.30;;;;;;;;;;5074670;28;20465;-84
2022/06/25 13:36:07;;;;;;;0.30;0.30;;;;;;;;;;5074472;28;20749;-84
2022/06/25 13:38:33;;;;;;;0.38;0.20;;;;;;;;;;5061173;28;20370;-86
2022/06/25 13:40:59;;;;;;;0.43;0.40;;;;;;;;;;5074383;28;20383;-84
2022/06/25 13:43:25;;;;;;;0.90;0.30;;;;;;;;;;5074443;28;20402;-84
2022/06/25 13:45:51;;;;;;;0.22;0.20;;;;;;;;;;5063927;28;20743;-84
2022/06/25 13:48:17;;;;;;;0.52;0.25;;;;;;;;;;5066667;28;20474;-83
2022/06/25 13:50:43;;;;;;;0.63;0.30;;;;;;;;;;5061776;28;20395;-84
2022/06/25 13:53:11;;;;;;;0.50;0.23;;;;;;;;;;5065907;28;20918;-84
2022/06/25 13:55:37;;;;;;;1.33;0.30;;;;;;;;;;5059576;28;20774;-84
2022/06/25 13:58:03;;;;;;;0.35;0.30;;;;;;;;;;5074221;28;20384;-84
2022/06/25 14:00:29;;;;;;;0.22;0.20;;;;;;;;;;5072527;28;20799;-84
2022/06/25 14:02:56;;;;;;;0.80;0.20;;;;;;;;;;5074112;28;20380;-84
2022/06/25 14:05:22;;;;;;;1.02;0.28;;;;;;;;;;5074088;28;20394;-84
2022/06/25 14:07:48;;;;;;;0.40;0.25;;;;;;;;;;5073726;28;20526;-84
2022/06/25 14:10:14;;;;;;;1.30;0.28;;;;;;;;;;5073777;28;20873;-84
2022/06/25 14:12:41;;;;;;;1.08;0.20;;;;;;;;;;5073856;28;20481;-84
2022/06/25 14:15:07;;;;;;;1.33;0.20;;;;;;;;;;5071612;28;20403;-84
2022/06/25 14:17:33;;;;;;;0.80;0.30;;;;;;;;;;5064858;28;20380;-85
2022/06/25 14:20:01;;;;;;;0.68;0.30;;;;;;;;;;5072342;28;20723;-84
2022/06/25 14:22:27;;;;;;;0.30;0.20;;;;;;;;;;5073342;28;20411;-84
2022/06/25 14:27:38;;;;;;;0.40;0.40;;;;;;;;;;5056260;28;20730;-84
2022/06/25 14:30:04;;;;;;;2.10;0.40;;;;;;;;;;5068257;28;20467;-86
2022/06/25 14:32:30;;;;;;;1.57;0.30;;;;;;;;;;5052468;28;20424;-85
2022/06/25 14:34:56;;;;;;;0.38;0.30;;;;;;;;;;5059730;28;20385;-85
2022/06/25 14:42:52;;;;;;;1.33;0.40;;;;;;;;;;5072009;28;20403;-85
2022/06/25 14:45:18;;;;;;;0.30;0.30;;;;;;;;;;5055087;28;20851;-84
2022/06/25 14:47:44;;;;;;;0.40;0.30;;;;;;;;;;5060692;28;20380;-84
2022/06/25 14:50:10;;;;;;;0.73;0.50;;;;;;;;;;5072930;28;20380;-85
2022/06/25 14:52:36;;;;;;;0.70;0.30;;;;;;;;;;5072605;28;20441;-84
2022/06/25 14:55:04;;;;;;;0.73;0.35;;;;;;;;;;5061288;28;20411;-85
2022/06/25 14:57:30;;;;;;;0.40;0.20;;;;;;;;;;5056715;28;20788;-85
2022/06/25 14:59:56;;;;;;;0.80;0.25;;;;;;;;;;5072690;28;20546;-85
2022/06/25 15:02:22;;;;;;;0.80;0.25;;;;;;;;;;5072803;28;20372;-84
2022/06/25 15:04:48;;;;;;;0.30;0.20;;;;;;;;;;5073036;28;20372;-85
2022/06/25 15:07:15;;;;;;;0.60;0.40;;;;;;;;;;5072673;28;20394;-85
2022/06/25 15:09:43;;;;;;;1.80;0.30;;;;;;;;;;5071689;28;21356;-85